Time;durP1;ratioP1;P1;durP2;ratioP2;P2;SDS_P1;SDS_P2;PMS_P1;PMS_P2;Temp;Humidity;BMP_temperature;BMP_pressure;BME280_temperature;BME280_humidity;BME280_pressure;Samples;Min_cycle;Max_cycle;Signal;HPM_P1;HPM_P2
2023/10/20 00:01:11;;;;;;;1388.93;474.00;;;7.80;99.90;;;;;;5134962;27;20116;-84
2023/10/20 00:03:37;;;;;;;1391.77;474.67;;;8.30;99.90;;;;;;5134489;27;20054;-84
2023/10/20 00:06:04;;;;;;;1448.50;511.27;;;7.60;99.90;;;;;;5116097;27;20395;-84
2023/10/20 00:08:30;;;;;;;1453.83;512.73;;;8.30;99.90;;;;;;5148460;27;20053;-83
2023/10/20 00:11:05;;;;;;;1383.83;473.73;;;8.20;99.90;;;;;;5155010;27;20042;-84
2023/10/20 00:13:31;;;;;;;1383.13;471.93;;;8.30;99.90;;;;;;5138351;27;20054;-84
2023/10/20 00:15:57;;;;;;;1448.23;510.33;;;8.40;99.90;;;;;;5119222;27;20047;-84
2023/10/20 00:18:23;;;;;;;1384.10;475.90;;;8.10;99.90;;;;;;5133409;27;20512;-83
2023/10/20 00:20:49;;;;;;;1379.90;469.47;;;7.60;99.90;;;;;;5133317;27;20084;-83
2023/10/20 00:23:14;;;;;;;1445.93;513.03;;;8.20;99.90;;;;;;5134455;27;20046;-84
2023/10/20 00:25:41;;;;;;;1447.23;511.93;;;7.60;99.90;;;;;;5132979;27;20045;-83
2023/10/20 00:28:09;;;;;;;1384.10;476.80;;;8.50;99.90;;;;;;5132677;27;20039;-84
2023/10/20 00:30:35;;;;;;;1381.87;468.40;;;8.20;99.90;;;;;;5133031;27;20479;-83
2023/10/20 00:33:01;;;;;;;1440.03;507.07;;;8.40;99.90;;;;;;5130780;27;20096;-84
2023/10/20 00:35:27;;;;;;;1442.90;509.73;;;8.20;99.90;;;;;;5116498;27;20043;-83
2023/10/20 00:37:53;;;;;;;1448.37;510.70;;;7.70;99.90;;;;;;5138920;27;20514;-83
2023/10/20 00:40:20;;;;;;;1447.90;511.10;;;7.60;99.90;;;;;;5134544;27;20150;-83
2023/10/20 00:42:45;;;;;;;1387.67;471.43;;;8.10;99.90;;;;;;5134260;27;20035;-83
2023/10/20 00:45:11;;;;;;;1379.70;469.53;;;8.40;99.90;;;;;;5115621;27;20043;-83
2023/10/20 00:47:38;;;;;;;1376.90;469.87;;;7.60;99.90;;;;;;5141152;27;20032;-83
2023/10/20 00:50:11;;;;;;;1380.03;474.63;;;8.00;99.90;;;;;;5129880;27;20115;-84
2023/10/20 00:52:37;;;;;;;1374.57;467.10;;;7.60;99.90;;;;;;5142110;27;20046;-83
2023/10/20 00:55:07;;;;;;;1443.60;509.20;;;8.30;99.90;;;;;;5135968;27;20038;-84
2023/10/20 00:57:37;;;;;;;1442.20;509.37;;;8.50;99.90;;;;;;5153582;27;20049;-84
2023/10/20 01:00:04;;;;;;;1439.23;507.17;;;7.60;99.90;;;;;;5154806;27;20053;-83
2023/10/20 01:02:30;;;;;;;1441.37;508.30;;;7.60;99.90;;;;;;5147026;27;20043;-83
2023/10/20 01:04:57;;;;;;;1440.40;516.53;;;7.60;99.90;;;;;;5139376;27;20050;-83
2023/10/20 01:07:24;;;;;;;1442.00;510.53;;;8.30;99.90;;;;;;5136849;27;20502;-83
2023/10/20 01:09:50;;;;;;;1438.40;508.10;;;7.60;99.90;;;;;;5133806;27;20043;-83
2023/10/20 01:12:16;;;;;;;1435.60;510.27;;;7.60;99.90;;;;;;5133574;27;20049;-83
2023/10/20 01:14:42;;;;;;;1437.87;511.77;;;8.40;99.90;;;;;;5133794;27;20051;-83
2023/10/20 01:17:10;;;;;;;1371.63;466.23;;;8.20;99.90;;;;;;5142549;27;20447;-83
2023/10/20 01:19:37;;;;;;;1370.13;459.90;;;8.50;99.90;;;;;;5152266;27;20125;-83
2023/10/20 01:22:04;;;;;;;1440.13;513.83;;;8.50;99.90;;;;;;5144090;27;20550;-83
2023/10/20 01:24:29;;;;;;;1435.07;510.50;;;8.30;99.90;;;;;;5115049;28;20043;-83
2023/10/20 01:26:55;;;;;;;1437.30;512.47;;;7.70;99.90;;;;;;5132340;28;20394;-83
2023/10/20 01:29:21;;;;;;;1436.13;510.67;;;7.70;99.90;;;;;;5132530;28;20391;-82
2023/10/20 01:31:47;;;;;;;1437.23;511.33;;;8.20;99.90;;;;;;5130122;27;20040;-83
2023/10/20 01:34:12;;;;;;;1436.17;512.23;;;8.00;99.90;;;;;;5152779;27;20043;-83
2023/10/20 01:36:39;;;;;;;1435.80;509.50;;;7.70;99.90;;;;;;5142435;27;20050;-83
2023/10/20 01:39:05;;;;;;;1378.37;470.60;;;7.70;99.90;;;;;;5134528;27;20107;-83
2023/10/20 01:41:31;;;;;;;1435.33;512.20;;;7.70;99.90;;;;;;5149166;27;20130;-83
2023/10/20 01:43:56;;;;;;;1375.80;470.37;;;8.40;99.90;;;;;;5142861;27;20035;-82
2023/10/20 01:46:23;;;;;;;1368.73;472.40;;;7.80;99.90;;;;;;5150747;27;20035;-83
2023/10/20 01:48:49;;;;;;;1430.77;509.77;;;7.60;99.90;;;;;;5154187;27;20394;-83
2023/10/20 01:51:15;;;;;;;1369.67;473.40;;;8.10;99.90;;;;;;5153997;27;20478;-82
2023/10/20 01:53:41;;;;;;;1377.10;469.00;;;8.10;99.90;;;;;;5154880;27;20099;-82
2023/10/20 01:56:07;;;;;;;1430.30;516.73;;;8.20;99.90;;;;;;5148630;27;20483;-83
2023/10/20 01:58:33;;;;;;;1429.03;514.73;;;7.60;99.90;;;;;;5153815;27;20045;-82
2023/10/20 02:00:58;;;;;;;1429.40;515.50;;;8.30;99.90;;;;;;5136034;27;20092;-83
2023/10/20 02:03:24;;;;;;;1365.67;470.90;;;7.60;99.90;;;;;;5135971;27;20043;-82
2023/10/20 02:05:50;;;;;;;1431.27;514.10;;;8.50;99.90;;;;;;5137512;27;20043;-84
2023/10/20 02:08:16;;;;;;;1429.13;517.73;;;7.50;99.90;;;;;;5142782;27;20390;-83
2023/10/20 02:10:45;;;;;;;1423.43;514.87;;;7.60;99.90;;;;;;5158072;27;20445;-84
2023/10/20 02:13:11;;;;;;;1358.60;465.00;;;7.60;99.90;;;;;;5144865;27;20058;-85
2023/10/20 02:15:37;;;;;;;1421.23;510.57;;;7.60;99.90;;;;;;5137150;27;20039;-85
2023/10/20 02:18:03;;;;;;;1424.20;511.67;;;7.60;99.90;;;;;;5131378;27;20039;-84
2023/10/20 02:20:29;;;;;;;1421.40;515.77;;;7.60;99.90;;;;;;5137153;27;20035;-84
2023/10/20 02:22:54;;;;;;;1355.37;471.97;;;7.60;99.90;;;;;;5135319;27;20035;-84
2023/10/20 02:25:20;;;;;;;1351.67;464.90;;;8.40;99.90;;;;;;5118308;27;20043;-84
2023/10/20 02:27:47;;;;;;;1417.47;515.10;;;7.60;99.90;;;;;;5135592;27;20047;-84
2023/10/20 02:30:15;;;;;;;1415.77;517.20;;;7.60;99.90;;;;;;5148864;27;20118;-84
2023/10/20 02:32:42;;;;;;;1416.37;516.33;;;7.60;99.90;;;;;;5138446;27;20047;-84
2023/10/20 02:35:08;;;;;;;1353.27;463.57;;;8.20;99.90;;;;;;5135422;27;20193;-84
2023/10/20 02:37:34;;;;;;;1399.83;510.37;;;7.50;99.90;;;;;;5136228;27;20143;-84
2023/10/20 02:40:04;;;;;;;1417.17;514.43;;;8.40;99.90;;;;;;5145174;27;20034;-84
2023/10/20 02:42:31;;;;;;;1353.63;465.83;;;7.00;99.90;;;;;;5127840;27;20047;-84
2023/10/20 02:44:57;;;;;;;1346.77;461.53;;;8.10;99.90;;;;;;5135074;27;20047;-85
2023/10/20 02:47:22;;;;;;;1345.93;474.30;;;7.50;99.90;;;;;;5135212;27;20126;-84
2023/10/20 02:49:53;;;;;;;1397.23;510.07;;;8.20;99.90;;;;;;5136415;27;20054;-84
2023/10/20 02:52:19;;;;;;;1396.93;507.07;;;7.50;99.90;;;;;;5147873;27;20110;-84
2023/10/20 02:54:44;;;;;;;1340.80;462.47;;;7.50;99.90;;;;;;5129096;27;20126;-84
2023/10/20 02:57:10;;;;;;;1395.83;511.93;;;7.50;99.90;;;;;;5134944;27;20050;-84
2023/10/20 02:59:36;;;;;;;1330.80;467.13;;;8.00;99.90;;;;;;5149577;27;20062;-84
2023/10/20 03:02:01;;;;;;;1317.00;458.30;;;8.50;99.90;;;;;;5155664;27;20039;-84
2023/10/20 03:04:27;;;;;;;1386.57;512.77;;;8.30;99.90;;;;;;5155096;27;20049;-84
2023/10/20 03:06:53;;;;;;;1324.77;462.07;;;8.00;99.90;;;;;;5153321;27;20042;-84
2023/10/20 03:09:18;;;;;;;1377.30;509.97;;;8.10;99.90;;;;;;5156692;27;20038;-84
2023/10/20 03:11:44;;;;;;;1371.97;512.20;;;8.10;99.90;;;;;;5155581;27;20123;-84
2023/10/20 03:14:11;;;;;;;1320.07;464.07;;;8.10;99.90;;;;;;5155212;27;20077;-85
2023/10/20 03:16:42;;;;;;;1375.67;512.33;;;8.10;99.90;;;;;;5147572;27;20046;-85
2023/10/20 03:19:09;;;;;;;1368.93;514.23;;;8.40;99.90;;;;;;5135960;27;20047;-84
2023/10/20 03:21:38;;;;;;;1364.43;513.03;;;8.00;99.90;;;;;;5135696;27;20164;-84
2023/10/20 03:24:04;;;;;;;1367.97;511.67;;;7.70;99.90;;;;;;5134360;27;20050;-84
2023/10/20 03:26:30;;;;;;;1361.07;509.87;;;7.40;99.90;;;;;;5136057;27;20062;-84
2023/10/20 03:28:56;;;;;;;1326.17;464.63;;;8.30;99.90;;;;;;5134574;27;20047;-84
2023/10/20 03:31:22;;;;;;;1315.50;463.23;;;8.30;99.90;;;;;;5134156;27;20076;-84
2023/10/20 03:33:48;;;;;;;1368.43;508.87;;;8.30;99.90;;;;;;5134279;27;20054;-84
2023/10/20 03:36:14;;;;;;;1365.47;510.83;;;8.10;99.90;;;;;;5135230;27;20043;-84
2023/10/20 03:38:39;;;;;;;1320.03;464.33;;;7.40;99.90;;;;;;5135451;27;20031;-84
2023/10/20 03:41:09;;;;;;;1319.40;463.23;;;7.40;99.90;;;;;;5135654;27;20099;-84
2023/10/20 03:43:36;;;;;;;1319.60;464.90;;;8.20;99.90;;;;;;5135398;27;20579;-83
2023/10/20 03:46:04;;;;;;;1322.93;467.30;;;7.70;99.90;;;;;;5135684;27;20054;-83
2023/10/20 03:48:31;;;;;;;1314.60;463.60;;;8.30;99.90;;;;;;5145354;27;20091;-84
2023/10/20 03:50:58;;;;;;;1362.87;508.67;;;7.50;99.90;;;;;;5143293;27;20054;-84
2023/10/20 03:53:39;;;;;;;1308.83;462.97;;;8.20;99.90;;;;;;5135237;27;20086;-84
2023/10/20 03:56:07;;;;;;;1317.10;462.77;;;7.60;99.90;;;;;;5133797;27;20104;-84
2023/10/20 03:58:35;;;;;;;1312.67;457.20;;;8.40;99.90;;;;;;5143653;27;20453;-84
2023/10/20 04:01:02;;;;;;;1364.63;513.67;;;8.20;99.90;;;;;;5155894;27;20043;-84
2023/10/20 04:03:30;;;;;;;1364.83;511.23;;;8.20;99.90;;;;;;5155540;27;20091;-84
2023/10/20 04:05:56;;;;;;;1360.23;509.70;;;7.60;99.90;;;;;;5155402;27;20047;-84
2023/10/20 04:08:23;;;;;;;1362.17;513.37;;;7.90;99.90;;;;;;5154156;27;20521;-84
2023/10/20 04:10:49;;;;;;;1362.37;512.97;;;8.10;99.90;;;;;;5155712;27;20099;-84
2023/10/20 04:13:15;;;;;;;1366.67;520.57;;;7.60;99.90;;;;;;5141907;27;20051;-84
2023/10/20 04:15:42;;;;;;;1356.13;511.73;;;8.10;99.90;;;;;;5121103;27;20414;-84
2023/10/20 04:18:08;;;;;;;1359.37;513.57;;;7.90;99.90;;;;;;5153743;27;20039;-85
2023/10/20 04:20:39;;;;;;;1361.27;509.50;;;7.70;99.90;;;;;;5155144;27;20042;-84
2023/10/20 04:23:07;;;;;;;1303.93;460.77;;;7.90;99.90;;;;;;5144278;27;20043;-84
2023/10/20 04:25:39;;;;;;;1356.47;509.80;;;7.60;99.90;;;;;;5132904;27;20168;-83
2023/10/20 04:59:44;;;;;;;1367.53;512.63;;;8.00;99.90;;;;;;5134070;27;20128;-83
2023/10/20 05:02:24;;;;;;;1383.67;516.93;;;7.70;99.90;;;;;;5132423;27;20031;-84
2023/10/20 05:04:52;;;;;;;1327.83;464.03;;;7.70;99.90;;;;;;5153254;27;20045;-83
2023/10/20 05:07:18;;;;;;;1371.57;513.60;;;7.70;99.90;;;;;;5153106;27;20074;-84
2023/10/20 05:09:49;;;;;;;1381.20;513.17;;;8.50;99.90;;;;;;5153197;27;20050;-83
2023/10/20 05:12:15;;;;;;;1328.13;467.97;;;7.90;99.90;;;;;;5153566;27;20049;-83
2023/10/20 05:14:41;;;;;;;1320.90;462.43;;;8.40;99.90;;;;;;5154443;27;20503;-84
2023/10/20 05:17:10;;;;;;;1325.70;457.57;;;8.40;99.90;;;;;;5135699;27;20103;-83
2023/10/20 05:19:36;;;;;;;1325.40;460.47;;;8.30;99.90;;;;;;5133737;27;20058;-83
2023/10/20 05:22:02;;;;;;;1329.30;466.27;;;8.50;99.90;;;;;;5133728;27;20050;-83
2023/10/20 05:24:27;;;;;;;1378.17;507.70;;;7.70;99.90;;;;;;5132118;27;20043;-84
2023/10/20 05:26:53;;;;;;;1373.67;511.17;;;8.10;99.90;;;;;;5134747;27;20101;-84
2023/10/20 05:29:19;;;;;;;1335.30;474.87;;;8.40;99.90;;;;;;5114118;28;20073;-84
2023/10/20 05:31:45;;;;;;;1379.27;513.37;;;7.80;99.90;;;;;;5133619;28;20070;-83
2023/10/20 05:34:12;;;;;;;1319.57;460.90;;;7.70;99.90;;;;;;5133393;27;20092;-84
2023/10/20 05:36:37;;;;;;;1326.17;463.20;;;7.80;99.90;;;;;;5133219;27;20047;-86
2023/10/20 05:39:03;;;;;;;1318.60;463.13;;;8.40;99.90;;;;;;5138303;27;20039;-83
2023/10/20 05:41:29;;;;;;;1370.20;508.07;;;7.70;99.90;;;;;;5153517;27;20039;-86
2023/10/20 05:43:55;;;;;;;1372.50;513.13;;;8.70;99.90;;;;;;5153940;27;20542;-85
2023/10/20 05:46:21;;;;;;;1377.13;511.57;;;7.70;99.90;;;;;;5153692;27;20081;-85
2023/10/20 05:48:47;;;;;;;1368.90;509.17;;;7.90;99.90;;;;;;5120282;28;20074;-85
2023/10/20 05:51:13;;;;;;;1328.13;462.13;;;7.30;99.90;;;;;;5111452;28;20031;-86
2023/10/20 05:53:39;;;;;;;1371.40;507.30;;;7.70;99.90;;;;;;5112932;28;20051;-84
2023/10/20 05:56:05;;;;;;;1323.40;457.97;;;7.70;99.90;;;;;;5094353;28;20050;-85
2023/10/20 05:58:32;;;;;;;1313.10;458.80;;;7.70;99.90;;;;;;5112805;28;20044;-87
2023/10/20 06:01:11;;;;;;;1323.10;460.20;;;8.10;99.90;;;;;;5111397;28;20499;-84
2023/10/20 06:03:38;;;;;;;1377.93;518.43;;;8.10;99.90;;;;;;5132590;27;20054;-83
2023/10/20 06:06:04;;;;;;;1370.93;514.47;;;7.60;99.90;;;;;;5145501;27;20081;-83
2023/10/20 06:08:30;;;;;;;1313.93;450.97;;;7.70;99.90;;;;;;5139303;27;20453;-83
2023/10/20 06:11:03;;;;;;;1370.43;508.93;;;7.60;99.90;;;;;;5132803;28;20114;-83
2023/10/20 06:13:34;;;;;;;1376.57;509.63;;;8.60;99.90;;;;;;5131961;28;20094;-84
2023/10/20 06:16:10;;;;;;;1322.87;456.03;;;8.10;99.90;;;;;;5133043;28;20035;-84
2023/10/20 06:18:40;;;;;;;1346.03;458.97;;;7.60;99.90;;;;;;5114605;28;20043;-84
2023/10/20 06:21:14;;;;;;;1342.70;463.40;;;7.70;99.90;;;;;;5132778;27;20054;-83
2023/10/20 06:23:40;;;;;;;1344.90;466.73;;;7.60;99.90;;;;;;5133035;28;20053;-83
2023/10/20 06:26:06;;;;;;;1394.10;509.20;;;7.50;99.90;;;;;;5131680;28;20043;-83
2023/10/20 06:28:32;;;;;;;1386.43;504.23;;;8.50;99.90;;;;;;5131636;28;20041;-83
2023/10/20 06:31:00;;;;;;;1393.13;505.50;;;7.50;99.90;;;;;;5136822;27;20074;-82
2023/10/20 06:33:37;;;;;;;1399.53;508.47;;;8.30;99.90;;;;;;5131707;28;20039;-83
2023/10/20 06:36:10;;;;;;;1390.73;507.30;;;7.50;99.90;;;;;;5131263;28;20039;-81
2023/10/20 06:38:44;;;;;;;1329.73;455.43;;;7.50;99.90;;;;;;5132689;28;20085;-82
2023/10/20 06:41:13;;;;;;;1339.47;461.17;;;8.30;99.90;;;;;;5134597;27;20036;-85
2023/10/20 06:43:41;;;;;;;1389.87;507.20;;;8.10;99.90;;;;;;5136451;27;20074;-83
2023/10/20 06:46:07;;;;;;;1386.80;511.97;;;7.50;99.90;;;;;;5126937;27;20151;-85
2023/10/20 06:48:33;;;;;;;1331.87;458.53;;;8.40;99.90;;;;;;5141668;27;20066;-82
2023/10/20 06:50:58;;;;;;;1378.00;516.80;;;7.50;99.90;;;;;;5157286;27;20122;-82
2023/10/20 06:53:25;;;;;;;1377.10;506.40;;;7.60;99.90;;;;;;5152842;27;20070;-84
2023/10/20 06:55:51;;;;;;;1314.63;453.27;;;7.40;99.90;;;;;;5136353;27;20157;-84
2023/10/20 06:58:17;;;;;;;1384.13;507.90;;;7.50;99.90;;;;;;5136408;27;20395;-83
2023/10/20 07:00:46;;;;;;;1374.57;506.60;;;7.50;99.90;;;;;;5135462;27;20050;-82
2023/10/20 07:03:13;;;;;;;1329.30;457.53;;;8.00;99.90;;;;;;5145623;27;20414;-83
2023/10/20 07:05:40;;;;;;;1373.43;509.43;;;8.10;99.90;;;;;;5157028;27;20043;-82
2023/10/20 07:08:06;;;;;;;1326.43;459.03;;;8.10;99.90;;;;;;5155996;27;20042;-85
2023/10/20 07:10:39;;;;;;;1375.33;510.37;;;7.40;99.90;;;;;;5144093;27;20050;-83
2023/10/20 07:13:10;;;;;;;1323.90;460.53;;;7.90;99.90;;;;;;5134921;27;20117;-83
2023/10/20 07:15:40;;;;;;;1326.73;459.87;;;8.10;99.90;;;;;;5136063;27;20487;-84
2023/10/20 07:18:06;;;;;;;1314.93;453.70;;;7.70;99.90;;;;;;5147475;27;20038;-84
2023/10/20 07:20:33;;;;;;;1323.97;454.60;;;8.00;99.90;;;;;;5148589;27;20043;-85
2023/10/20 07:22:59;;;;;;;1367.20;508.93;;;7.40;99.90;;;;;;5135530;27;20491;-82
2023/10/20 07:25:26;;;;;;;1360.70;501.93;;;7.30;99.90;;;;;;5135885;27;20055;-82
2023/10/20 07:27:53;;;;;;;1364.73;506.73;;;7.90;99.90;;;;;;5135764;27;20050;-83
2023/10/20 07:30:19;;;;;;;1365.93;506.23;;;7.60;99.90;;;;;;5118377;27;20034;-82
2023/10/20 07:32:46;;;;;;;1362.53;506.53;;;7.30;99.90;;;;;;5130790;27;20523;-84
2023/10/20 07:35:12;;;;;;;1375.10;512.13;;;8.20;99.90;;;;;;5115076;28;20052;-84
2023/10/20 07:37:38;;;;;;;1377.23;509.27;;;7.30;99.90;;;;;;5113940;28;20044;-85
2023/10/20 07:40:06;;;;;;;1365.00;508.73;;;8.10;99.90;;;;;;5130130;27;20386;-83
2023/10/20 07:42:32;;;;;;;1317.30;456.90;;;7.30;99.90;;;;;;5135532;27;20395;-84
2023/10/20 07:44:58;;;;;;;1317.03;455.10;;;7.90;99.90;;;;;;5135881;27;20039;-86
2023/10/20 07:47:24;;;;;;;1306.83;456.37;;;8.10;99.90;;;;;;5134610;27;20737;-89
2023/10/20 07:49:51;;;;;;;1302.77;449.93;;;7.60;99.90;;;;;;5135056;27;20499;-87
2023/10/20 07:52:17;;;;;;;1309.50;454.70;;;8.10;99.90;;;;;;5134652;27;20487;-86
2023/10/20 07:54:43;;;;;;;1354.87;502.33;;;7.20;99.90;;;;;;5144567;27;20043;-84
2023/10/20 07:57:10;;;;;;;1367.20;509.07;;;7.20;99.90;;;;;;5152035;27;20085;-87
2023/10/20 07:59:36;;;;;;;1358.87;505.17;;;7.90;99.90;;;;;;5134742;27;20450;-86
2023/10/20 08:02:05;;;;;;;1313.70;451.07;;;7.20;99.90;;;;;;5134959;27;20054;-86
2023/10/20 08:04:36;;;;;;;1328.23;455.50;;;7.90;99.90;;;;;;5149014;27;20076;-90
2023/10/20 08:07:03;;;;;;;1331.17;454.23;;;7.10;99.90;;;;;;5154568;27;20485;-85
2023/10/20 08:09:28;;;;;;;1374.03;503.67;;;7.10;99.90;;;;;;5155474;27;20049;-89
2023/10/20 08:11:56;;;;;;;1321.07;452.17;;;7.20;99.90;;;;;;5133442;27;20102;-85
2023/10/20 08:14:23;;;;;;;1374.40;507.07;;;7.90;99.90;;;;;;5135843;27;20055;-91
2023/10/20 08:16:51;;;;;;;1309.60;460.10;;;7.60;99.90;;;;;;5158210;27;20494;-83
2023/10/20 08:19:16;;;;;;;1363.23;504.57;;;7.40;99.90;;;;;;5140640;27;20089;-83
2023/10/20 08:21:43;;;;;;;1355.40;507.73;;;7.60;99.90;;;;;;5176282;27;20034;-84
2023/10/20 08:24:10;;;;;;;1307.60;457.07;;;7.40;99.90;;;;;;5157415;27;20046;-84
2023/10/20 08:26:36;;;;;;;1306.33;455.97;;;7.20;99.90;;;;;;5176439;27;20074;-83
2023/10/20 08:29:06;;;;;;;1353.00;508.40;;;8.00;99.90;;;;;;5157479;27;20046;-84
2023/10/20 08:31:31;;;;;;;1351.83;502.80;;;7.20;99.90;;;;;;5173307;27;20051;-86
2023/10/20 08:33:58;;;;;;;1344.17;505.37;;;7.80;99.90;;;;;;5136093;27;20086;-88
2023/10/20 08:36:24;;;;;;;1347.53;502.93;;;7.20;99.90;;;;;;5157182;27;20084;-83
2023/10/20 08:38:51;;;;;;;1301.37;445.73;;;7.20;99.90;;;;;;5176052;27;20042;-86
2023/10/20 08:41:22;;;;;;;1319.33;457.33;;;7.40;99.90;;;;;;5155896;27;20046;-83
2023/10/20 08:43:49;;;;;;;1317.30;458.53;;;7.60;99.90;;;;;;5136764;27;20039;-82
2023/10/20 08:46:16;;;;;;;1351.83;507.03;;;7.90;99.90;;;;;;5155055;27;20129;-82
2023/10/20 08:48:43;;;;;;;1354.53;505.50;;;7.20;99.90;;;;;;5154758;27;20047;-82
2023/10/20 08:51:11;;;;;;;1358.27;509.10;;;7.70;99.90;;;;;;5154347;27;20046;-82
2023/10/20 08:53:38;;;;;;;1312.30;451.40;;;7.70;99.90;;;;;;5136462;27;20042;-82
2023/10/20 08:56:09;;;;;;;1312.73;459.57;;;7.90;99.90;;;;;;5161450;27;20034;-82
2023/10/20 08:58:35;;;;;;;1318.53;460.50;;;7.10;99.90;;;;;;5168183;27;20057;-83
2023/10/20 09:01:02;;;;;;;1369.70;510.43;;;7.00;99.90;;;;;;5154778;27;20486;-82
2023/10/20 09:03:41;;;;;;;1367.23;507.43;;;7.30;99.90;;;;;;5117684;27;20057;-82
2023/10/20 09:06:09;;;;;;;1317.47;454.67;;;7.00;99.90;;;;;;5135687;27;20126;-83
2023/10/20 09:08:35;;;;;;;1326.73;462.80;;;6.90;99.90;;;;;;5118808;27;20486;-81
2023/10/20 09:11:02;;;;;;;1322.33;455.63;;;7.60;99.90;;;;;;5154583;27;20066;-82
2023/10/20 09:13:34;;;;;;;1367.87;504.13;;;6.90;99.90;;;;;;5154409;27;20134;-82
2023/10/20 09:16:08;;;;;;;1365.10;508.67;;;6.90;99.90;;;;;;5146593;27;20101;-84
2023/10/20 09:18:52;;;;;;;1360.27;499.43;;;6.90;99.90;;;;;;5154323;27;20107;-84
2023/10/20 09:21:20;;;;;;;1322.40;458.47;;;6.90;99.90;;;;;;5135919;27;20056;-84
2023/10/20 09:24:06;;;;;;;1317.73;458.60;;;7.70;99.90;;;;;;5135631;27;20115;-83
2023/10/20 09:26:37;;;;;;;1356.05;503.17;;;6.90;99.90;;;;;;5136023;27;20151;-83
2023/10/20 09:29:07;;;;;;;1363.70;507.40;;;6.90;99.90;;;;;;5154114;27;20062;-82
2023/10/20 09:31:34;;;;;;;1317.47;447.63;;;6.90;99.90;;;;;;5172025;27;20493;-83
2023/10/20 09:34:00;;;;;;;1317.00;455.70;;;7.30;99.90;;;;;;5163371;27;20042;-83
2023/10/20 09:36:30;;;;;;;1367.87;503.83;;;7.80;99.90;;;;;;5154336;27;20169;-83
2023/10/20 09:39:00;;;;;;;1309.07;452.23;;;6.90;99.90;;;;;;5154407;27;20061;-84
2023/10/20 09:41:28;;;;;;;1358.10;503.50;;;6.90;99.90;;;;;;5146975;27;20034;-83
2023/10/20 09:44:06;;;;;;;1355.50;505.40;;;7.70;99.90;;;;;;5156127;27;20120;-85
2023/10/20 09:46:59;;;;;;;1361.73;505.93;;;6.90;99.90;;;;;;5156793;27;20046;-82
2023/10/20 09:49:26;;;;;;;1364.43;510.13;;;6.80;99.90;;;;;;5135505;27;20043;-81
2023/10/20 09:51:54;;;;;;;1322.00;462.10;;;6.80;99.90;;;;;;5153948;27;20035;-82
2023/10/20 09:54:31;;;;;;;1362.47;504.90;;;6.90;99.90;;;;;;5135251;27;20038;-82
2023/10/20 09:56:57;;;;;;;1315.57;451.27;;;6.90;99.90;;;;;;5154246;27;20046;-83
2023/10/20 09:59:25;;;;;;;1361.60;503.90;;;6.80;99.90;;;;;;5153838;27;20034;-83
2023/10/20 10:01:56;;;;;;;1362.90;505.33;;;6.80;99.90;;;;;;5162392;27;20042;-81
2023/10/20 10:04:26;;;;;;;1327.70;458.53;;;7.60;99.90;;;;;;5173682;27;20125;-81
2023/10/20 10:06:52;;;;;;;1326.93;458.77;;;7.70;99.90;;;;;;5153739;27;20049;-82
2023/10/20 10:09:18;;;;;;;1327.13;456.30;;;7.20;99.90;;;;;;5135632;27;20031;-83
2023/10/20 10:11:45;;;;;;;1322.07;455.60;;;7.40;99.90;;;;;;5134639;27;20130;-83
2023/10/20 10:14:21;;;;;;;1369.60;507.23;;;7.30;99.90;;;;;;5154229;27;20125;-83
2023/10/20 10:16:59;;;;;;;1364.10;502.20;;;6.90;99.90;;;;;;5157418;27;20386;-83
2023/10/20 10:19:28;;;;;;;1372.43;510.43;;;6.70;99.90;;;;;;5174076;27;20490;-82
2023/10/20 10:21:59;;;;;;;1330.80;467.97;;;7.40;99.90;;;;;;5157566;27;20465;-81
2023/10/20 10:24:25;;;;;;;1368.63;508.97;;;6.80;99.90;;;;;;5118307;27;20562;-83
2023/10/20 10:26:54;;;;;;;1357.03;513.97;;;7.70;99.90;;;;;;5154715;27;20046;-84
2023/10/20 10:29:39;;;;;;;1302.13;446.10;;;7.00;99.90;;;;;;5139319;27;20042;-82
2023/10/20 10:32:13;;;;;;;1351.18;508.55;;;6.80;99.90;;;;;;5157401;27;20042;-82
2023/10/20 10:34:54;;;;;;;1347.37;503.13;;;6.90;99.90;;;;;;5147483;27;20121;-84
2023/10/20 10:37:37;;;;;;;1351.97;505.97;;;6.80;99.90;;;;;;5159678;27;20046;-84
2023/10/20 10:40:08;;;;;;;1306.90;447.07;;;7.30;99.90;;;;;;5142512;27;20043;-83
2023/10/20 10:42:40;;;;;;;1310.33;450.80;;;6.80;99.90;;;;;;5157287;27;20487;-83
2023/10/20 10:45:19;;;;;;;1306.13;448.43;;;6.80;99.90;;;;;;5121944;27;20383;-82
2023/10/20 10:47:46;;;;;;;1365.20;506.30;;;6.80;99.90;;;;;;5157589;27;20047;-82
2023/10/20 10:50:12;;;;;;;1313.60;452.23;;;6.80;99.90;;;;;;5157327;27;20038;-83
2023/10/20 10:52:37;;;;;;;1316.00;455.47;;;6.80;99.90;;;;;;5157000;27;20507;-83
2023/10/20 10:55:04;;;;;;;1365.53;508.17;;;7.60;99.90;;;;;;5156975;27;20039;-83
2023/10/20 10:57:30;;;;;;;1310.27;453.17;;;6.80;99.90;;;;;;5138720;27;20486;-84
2023/10/20 10:59:56;;;;;;;1312.77;455.93;;;6.80;99.90;;;;;;5145100;27;20058;-81
2023/10/20 11:02:23;;;;;;;1309.87;452.57;;;6.80;99.90;;;;;;5117811;27;20043;-82
2023/10/20 11:04:48;;;;;;;1353.77;502.07;;;6.90;99.90;;;;;;5136352;27;20082;-82
2023/10/20 11:07:15;;;;;;;1308.50;456.27;;;7.40;99.90;;;;;;5136092;27;20082;-83
2023/10/20 11:09:41;;;;;;;1311.60;452.50;;;7.20;99.90;;;;;;5118028;27;20107;-83
2023/10/20 11:12:13;;;;;;;1356.90;500.80;;;7.40;99.90;;;;;;5146304;27;20513;-83
2023/10/20 11:14:39;;;;;;;1363.57;506.60;;;6.90;99.90;;;;;;5158957;27;20054;-83
2023/10/20 11:17:05;;;;;;;1361.23;504.73;;;7.70;99.90;;;;;;5137878;27;20044;-82
2023/10/20 11:19:31;;;;;;;1317.97;455.93;;;6.90;99.90;;;;;;5136049;27;20510;-82
2023/10/20 11:21:56;;;;;;;1351.37;502.33;;;6.90;99.90;;;;;;5134630;27;20483;-83
2023/10/20 11:24:34;;;;;;;1353.30;503.40;;;7.10;99.90;;;;;;5117426;27;20122;-83
2023/10/20 11:27:05;;;;;;;1357.07;511.10;;;6.90;99.90;;;;;;5154029;27;20403;-83
2023/10/20 11:29:32;;;;;;;1358.93;509.40;;;6.80;99.90;;;;;;5137932;27;20038;-83
2023/10/20 11:32:00;;;;;;;1348.53;501.10;;;7.10;99.90;;;;;;5138113;27;20034;-84
2023/10/20 11:34:27;;;;;;;1349.87;502.17;;;7.30;99.90;;;;;;5137726;27;20056;-83
2023/10/20 11:36:53;;;;;;;1359.30;505.87;;;7.60;99.90;;;;;;5137105;27;20534;-83
2023/10/20 11:39:24;;;;;;;1352.43;503.03;;;7.30;99.90;;;;;;5137364;27;20035;-83
2023/10/20 11:41:51;;;;;;;1353.93;504.17;;;6.80;99.90;;;;;;5137686;27;20071;-83
2023/10/20 11:44:17;;;;;;;1313.97;460.30;;;7.70;99.90;;;;;;5137488;27;20042;-83
2023/10/20 11:46:43;;;;;;;1351.63;504.77;;;6.80;99.90;;;;;;5141668;27;20107;-84
2023/10/20 11:49:10;;;;;;;1306.97;455.73;;;7.40;99.90;;;;;;5158390;27;20042;-83
2023/10/20 11:51:38;;;;;;;1351.43;507.63;;;7.30;99.90;;;;;;5158172;27;20431;-84
2023/10/20 11:54:05;;;;;;;1342.50;506.40;;;7.20;99.90;;;;;;5176761;27;20053;-83
2023/10/20 11:56:30;;;;;;;1334.77;499.37;;;6.80;99.90;;;;;;5158233;27;20482;-82
2023/10/20 11:58:56;;;;;;;1334.20;499.47;;;7.20;99.90;;;;;;5157331;27;20049;-82
2023/10/20 12:01:23;;;;;;;1335.13;502.67;;;7.70;99.90;;;;;;5146435;27;20046;-83
2023/10/20 12:03:49;;;;;;;1344.37;509.33;;;7.30;99.90;;;;;;5136957;27;20487;-83
2023/10/20 12:06:15;;;;;;;1301.23;452.93;;;6.90;99.90;;;;;;5155198;27;20046;-82
2023/10/20 12:08:41;;;;;;;1341.00;503.23;;;7.40;99.90;;;;;;5155600;27;20223;-84
2023/10/20 12:11:08;;;;;;;1343.83;506.63;;;7.30;99.90;;;;;;5136978;27;20043;-83
2023/10/20 12:13:38;;;;;;;1339.20;502.13;;;7.60;99.90;;;;;;5141458;27;20046;-83
2023/10/20 12:16:08;;;;;;;1300.27;453.77;;;6.70;99.90;;;;;;5158344;27;20034;-83
2023/10/20 12:18:34;;;;;;;1301.90;449.67;;;6.80;99.90;;;;;;5176496;27;20042;-83
2023/10/20 12:20:59;;;;;;;1350.47;508.17;;;6.80;99.90;;;;;;5157592;27;20398;-82
2023/10/20 12:23:25;;;;;;;1348.73;507.97;;;6.80;99.90;;;;;;5157633;27;20050;-83
2023/10/20 12:25:51;;;;;;;1337.10;503.40;;;6.80;99.90;;;;;;5154769;27;20081;-83
2023/10/20 12:28:16;;;;;;;1341.63;502.23;;;7.70;99.90;;;;;;5155625;27;20052;-83
2023/10/20 12:30:42;;;;;;;1345.87;503.90;;;6.80;99.90;;;;;;5136940;27;20078;-83
2023/10/20 12:33:08;;;;;;;1297.20;449.03;;;7.10;99.90;;;;;;5155543;27;20038;-86
2023/10/20 12:35:34;;;;;;;1336.73;500.03;;;7.00;99.90;;;;;;5136488;27;20038;-82
2023/10/20 12:37:59;;;;;;;1301.20;450.67;;;7.10;99.90;;;;;;5154988;27;20046;-82
2023/10/20 12:40:25;;;;;;;1296.50;449.50;;;7.50;99.90;;;;;;5155126;27;20043;-85
2023/10/20 12:42:51;;;;;;;1296.23;452.23;;;6.80;99.90;;;;;;5155265;27;20090;-83